sensor_id;sensor_type;location;lat;lon;timestamp;pressure;altitude;pressure_sealevel;temperature;humidity
64844;BME280;51310;52.198;5.422;2023-04-26T00:02:12;101728.72;;;2.58;100.00
64844;BME280;51310;52.198;5.422;2023-04-26T00:04:38;101738.66;;;2.56;100.00
64844;BME280;51310;52.198;5.422;2023-04-26T00:07:05;101726.94;;;2.51;100.00
64844;BME280;51310;52.198;5.422;2023-04-26T00:09:32;101735.47;;;2.52;100.00
64844;BME280;51310;52.198;5.422;2023-04-26T00:11:58;101733.63;;;2.51;100.00
64844;BME280;51310;52.198;5.422;2023-04-26T00:14:24;101738.03;;;2.46;100.00
64844;BME280;51310;52.198;5.422;2023-04-26T00:16:50;101735.94;;;2.49;100.00
64844;BME280;51310;52.198;5.422;2023-04-26T00:19:16;101741.13;;;2.38;100.00
64844;BME280;51310;52.198;5.422;2023-04-26T00:21:42;101737.47;;;2.30;100.00
64844;BME280;51310;52.198;5.422;2023-04-26T00:24:08;101734.28;;;2.25;100.00
64844;BME280;51310;52.198;5.422;2023-04-26T00:26:34;101734.06;;;2.24;100.00
64844;BME280;51310;52.198;5.422;2023-04-26T00:29:03;101732.31;;;2.12;100.00
64844;BME280;51310;52.198;5.422;2023-04-26T00:31:28;101734.97;;;1.89;100.00
64844;BME280;51310;52.198;5.422;2023-04-26T00:33:54;101736.78;;;1.96;100.00
64844;BME280;51310;52.198;5.422;2023-04-26T00:36:20;101738.91;;;1.87;100.00
64844;BME280;51310;52.198;5.422;2023-04-26T00:38:46;101732.50;;;1.78;100.00
64844;BME280;51310;52.198;5.422;2023-04-26T00:41:12;101729.56;;;1.69;100.00
64844;BME280;51310;52.198;5.422;2023-04-26T00:43:38;101730.78;;;1.54;100.00
64844;BME280;51310;52.198;5.422;2023-04-26T00:46:05;101732.41;;;1.48;100.00
64844;BME280;51310;52.198;5.422;2023-04-26T00:48:32;101726.91;;;1.39;100.00
64844;BME280;51310;52.198;5.422;2023-04-26T00:50:58;101722.09;;;1.35;100.00
64844;BME280;51310;52.198;5.422;2023-04-26T00:53:25;101728.53;;;1.33;100.00
64844;BME280;51310;52.198;5.422;2023-04-26T00:55:51;101719.84;;;1.26;100.00
64844;BME280;51310;52.198;5.422;2023-04-26T00:58:18;101724.91;;;1.14;100.00
64844;BME280;51310;52.198;5.422;2023-04-26T01:00:47;101725.84;;;1.09;100.00
64844;BME280;51310;52.198;5.422;2023-04-26T01:03:14;101724.47;;;1.11;100.00
64844;BME280;51310;52.198;5.422;2023-04-26T01:05:41;101728.16;;;1.19;100.00
64844;BME280;51310;52.198;5.422;2023-04-26T01:08:07;101728.38;;;1.15;100.00
64844;BME280;51310;52.198;5.422;2023-04-26T01:10:34;101729.53;;;1.11;100.00
64844;BME280;51310;52.198;5.422;2023-04-26T01:13:02;101742.94;;;1.10;100.00
64844;BME280;51310;52.198;5.422;2023-04-26T01:15:30;101743.59;;;1.09;100.00
64844;BME280;51310;52.198;5.422;2023-04-26T01:17:58;101745.91;;;1.08;100.00
64844;BME280;51310;52.198;5.422;2023-04-26T01:20:24;101745.00;;;1.01;100.00
64844;BME280;51310;52.198;5.422;2023-04-26T01:22:53;101749.84;;;1.00;100.00
64844;BME280;51310;52.198;5.422;2023-04-26T01:25:19;101751.00;;;1.02;100.00
64844;BME280;51310;52.198;5.422;2023-04-26T01:27:45;101749.81;;;1.06;100.00
64844;BME280;51310;52.198;5.422;2023-04-26T01:30:11;101750.03;;;1.18;100.00
64844;BME280;51310;52.198;5.422;2023-04-26T01:32:37;101748.41;;;1.25;100.00
64844;BME280;51310;52.198;5.422;2023-04-26T01:35:03;101756.03;;;1.13;100.00
64844;BME280;51310;52.198;5.422;2023-04-26T01:37:30;101752.16;;;1.04;100.00
64844;BME280;51310;52.198;5.422;2023-04-26T01:39:55;101758.38;;;0.95;100.00
64844;BME280;51310;52.198;5.422;2023-04-26T01:42:21;101750.78;;;0.89;100.00
64844;BME280;51310;52.198;5.422;2023-04-26T01:44:47;101757.69;;;0.90;100.00
64844;BME280;51310;52.198;5.422;2023-04-26T01:47:12;101760.22;;;0.90;100.00
64844;BME280;51310;52.198;5.422;2023-04-26T01:49:38;101761.41;;;0.87;100.00
64844;BME280;51310;52.198;5.422;2023-04-26T01:52:04;101754.72;;;0.87;100.00
64844;BME280;51310;52.198;5.422;2023-04-26T01:54:29;101751.03;;;0.79;100.00
64844;BME280;51310;52.198;5.422;2023-04-26T01:56:55;101754.72;;;0.76;100.00
64844;BME280;51310;52.198;5.422;2023-04-26T01:59:21;101754.25;;;0.73;100.00
64844;BME280;51310;52.198;5.422;2023-04-26T02:01:47;101749.66;;;0.70;100.00
64844;BME280;51310;52.198;5.422;2023-04-26T02:04:13;101751.03;;;0.68;100.00
64844;BME280;51310;52.198;5.422;2023-04-26T02:06:38;101747.13;;;0.70;100.00
64844;BME280;51310;52.198;5.422;2023-04-26T02:09:06;101752.19;;;0.65;100.00
64844;BME280;51310;52.198;5.422;2023-04-26T02:11:34;101752.91;;;0.69;100.00
64844;BME280;51310;52.198;5.422;2023-04-26T02:14:00;101751.25;;;0.81;100.00
64844;BME280;51310;52.198;5.422;2023-04-26T02:16:26;101751.97;;;0.80;100.00
64844;BME280;51310;52.198;5.422;2023-04-26T02:18:52;101754.94;;;0.83;100.00
64844;BME280;51310;52.198;5.422;2023-04-26T02:21:20;101755.63;;;0.82;100.00
64844;BME280;51310;52.198;5.422;2023-04-26T02:23:45;101757.03;;;0.80;100.00
64844;BME280;51310;52.198;5.422;2023-04-26T02:26:13;101749.19;;;0.73;100.00
64844;BME280;51310;52.198;5.422;2023-04-26T02:28:39;101748.72;;;0.81;100.00
64844;BME280;51310;52.198;5.422;2023-04-26T02:31:04;101760.25;;;0.79;100.00
64844;BME280;51310;52.198;5.422;2023-04-26T02:33:30;101750.09;;;0.79;100.00
64844;BME280;51310;52.198;5.422;2023-04-26T02:35:56;101751.03;;;0.74;100.00
64844;BME280;51310;52.198;5.422;2023-04-26T02:38:23;101756.78;;;0.73;100.00
64844;BME280;51310;52.198;5.422;2023-04-26T02:41:01;101755.19;;;0.79;100.00
64844;BME280;51310;52.198;5.422;2023-04-26T02:43:27;101749.91;;;0.72;100.00
64844;BME280;51310;52.198;5.422;2023-04-26T02:45:52;101746.44;;;0.60;100.00
64844;BME280;51310;52.198;5.422;2023-04-26T02:48:18;101744.13;;;0.50;100.00
64844;BME280;51310;52.198;5.422;2023-04-26T02:50:45;101748.53;;;0.46;100.00
64844;BME280;51310;52.198;5.422;2023-04-26T02:53:11;101750.34;;;0.35;100.00
64844;BME280;51310;52.198;5.422;2023-04-26T02:55:38;101747.13;;;0.53;100.00
64844;BME280;51310;52.198;5.422;2023-04-26T02:58:04;101747.34;;;0.49;100.00
64844;BME280;51310;52.198;5.422;2023-04-26T03:00:29;101748.50;;;0.40;100.00
64844;BME280;51310;52.198;5.422;2023-04-26T03:02:55;101747.34;;;0.32;100.00
64844;BME280;51310;52.198;5.422;2023-04-26T03:05:21;101748.50;;;0.29;100.00
64844;BME280;51310;52.198;5.422;2023-04-26T03:07:47;101746.19;;;0.25;100.00
64844;BME280;51310;52.198;5.422;2023-04-26T03:10:13;101744.13;;;0.22;100.00
64844;BME280;51310;52.198;5.422;2023-04-26T03:12:38;101739.28;;;0.40;100.00
64844;BME280;51310;52.198;5.422;2023-04-26T03:15:05;101739.97;;;0.45;100.00
64844;BME280;51310;52.198;5.422;2023-04-26T03:17:31;101738.59;;;0.36;100.00
64844;BME280;51310;52.198;5.422;2023-04-26T03:19:56;101738.13;;;0.27;100.00
64844;BME280;51310;52.198;5.422;2023-04-26T03:22:22;101742.25;;;0.21;100.00
64844;BME280;51310;52.198;5.422;2023-04-26T03:24:48;101738.59;;;0.25;100.00
64844;BME280;51310;52.198;5.422;2023-04-26T03:27:13;101743.19;;;0.22;100.00
64844;BME280;51310;52.198;5.422;2023-04-26T03:29:39;101742.28;;;0.15;100.00
64844;BME280;51310;52.198;5.422;2023-04-26T03:32:05;101736.28;;;0.09;100.00
64844;BME280;51310;52.198;5.422;2023-04-26T03:34:31;101738.34;;;0.12;100.00
64844;BME280;51310;52.198;5.422;2023-04-26T03:36:57;101747.09;;;0.14;100.00
64844;BME280;51310;52.198;5.422;2023-04-26T03:39:23;101738.81;;;0.15;100.00
64844;BME280;51310;52.198;5.422;2023-04-26T03:41:48;101737.44;;;0.11;100.00
64844;BME280;51310;52.198;5.422;2023-04-26T03:44:14;101738.81;;;0.15;100.00
64844;BME280;51310;52.198;5.422;2023-04-26T03:46:40;101735.81;;;0.12;100.00
64844;BME280;51310;52.198;5.422;2023-04-26T03:49:06;101736.50;;;0.16;100.00
64844;BME280;51310;52.198;5.422;2023-04-26T03:51:32;101740.91;;;0.17;100.00
64844;BME280;51310;52.198;5.422;2023-04-26T03:53:58;101742.50;;;0.23;100.00
64844;BME280;51310;52.198;5.422;2023-04-26T03:56:24;101736.75;;;0.24;100.00
64844;BME280;51310;52.198;5.422;2023-04-26T03:58:50;101744.34;;;0.18;100.00
64844;BME280;51310;52.198;5.422;2023-04-26T04:01:15;101745.03;;;0.17;100.00
64844;BME280;51310;52.198;5.422;2023-04-26T04:03:41;101739.75;;;0.15;100.00
64844;BME280;51310;52.198;5.422;2023-04-26T04:06:07;101746.19;;;0.19;100.00
64844;BME280;51310;52.198;5.422;2023-04-26T04:08:33;101747.13;;;0.19;100.00
64844;BME280;51310;52.198;5.422;2023-04-26T04:10:59;101745.25;;;0.30;100.00
64844;BME280;51310;52.198;5.422;2023-04-26T04:13:25;101747.78;;;0.30;100.00
64844;BME280;51310;52.198;5.422;2023-04-26T04:15:51;101743.91;;;0.37;100.00
64844;BME280;51310;52.198;5.422;2023-04-26T04:18:17;101743.44;;;0.57;100.00
64844;BME280;51310;52.198;5.422;2023-04-26T04:20:43;101736.53;;;0.73;100.00
64844;BME280;51310;52.198;5.422;2023-04-26T04:23:09;101740.66;;;0.84;100.00
64844;BME280;51310;52.198;5.422;2023-04-26T04:25:35;101734.91;;;0.79;100.00
64844;BME280;51310;52.198;5.422;2023-04-26T04:28:02;101742.97;;;0.76;100.00
64844;BME280;51310;52.198;5.422;2023-04-26T04:30:28;101742.97;;;0.76;100.00
64844;BME280;51310;52.198;5.422;2023-04-26T04:32:55;101748.97;;;0.82;100.00
64844;BME280;51310;52.198;5.422;2023-04-26T04:35:23;101745.25;;;0.86;100.00
64844;BME280;51310;52.198;5.422;2023-04-26T04:37:56;101751.47;;;0.94;100.00
64844;BME280;51310;52.198;5.422;2023-04-26T04:40:23;101748.00;;;1.05;100.00
64844;BME280;51310;52.198;5.422;2023-04-26T04:42:49;101749.63;;;1.04;100.00
64844;BME280;51310;52.198;5.422;2023-04-26T04:45:15;101746.88;;;0.91;100.00
64844;BME280;51310;52.198;5.422;2023-04-26T04:47:42;101743.16;;;0.95;100.00
64844;BME280;51310;52.198;5.422;2023-04-26T04:50:09;101743.19;;;0.89;100.00
64844;BME280;51310;52.198;5.422;2023-04-26T04:52:35;101749.88;;;0.89;100.00
64844;BME280;51310;52.198;5.422;2023-04-26T04:55:02;101740.41;;;0.99;100.00
64844;BME280;51310;52.198;5.422;2023-04-26T04:57:29;101745.22;;;1.03;100.00
64844;BME280;51310;52.198;5.422;2023-04-26T04:59:55;101742.19;;;1.22;100.00
64844;BME280;51310;52.198;5.422;2023-04-26T05:02:21;101743.28;;;1.36;100.00
64844;BME280;51310;52.198;5.422;2023-04-26T05:04:47;101746.72;;;1.48;100.00
64844;BME280;51310;52.198;5.422;2023-04-26T05:07:12;101745.75;;;1.53;100.00
64844;BME280;51310;52.198;5.422;2023-04-26T05:09:43;101746.47;;;1.52;100.00
64844;BME280;51310;52.198;5.422;2023-04-26T05:12:09;101751.31;;;1.44;100.00
64844;BME280;51310;52.198;5.422;2023-04-26T05:14:35;101749.72;;;1.45;100.00
64844;BME280;51310;52.198;5.422;2023-04-26T05:17:00;101743.72;;;1.44;100.00
64844;BME280;51310;52.198;5.422;2023-04-26T05:19:26;101742.06;;;1.56;100.00
64844;BME280;51310;52.198;5.422;2023-04-26T05:21:52;101747.75;;;1.78;100.00
64844;BME280;51310;52.198;5.422;2023-04-26T05:24:18;101752.66;;;2.06;100.00
64844;BME280;51310;52.198;5.422;2023-04-26T05:26:43;101752.88;;;2.37;100.00
64844;BME280;51310;52.198;5.422;2023-04-26T05:29:09;101745.59;;;2.57;100.00
64844;BME280;51310;52.198;5.422;2023-04-26T05:31:35;101737.97;;;2.81;100.00
64844;BME280;51310;52.198;5.422;2023-04-26T05:34:01;101723.84;;;3.07;100.00
64844;BME280;51310;52.198;5.422;2023-04-26T05:36:26;101727.63;;;3.22;100.00
64844;BME280;51310;52.198;5.422;2023-04-26T05:38:52;101723.09;;;3.51;100.00
64844;BME280;51310;52.198;5.422;2023-04-26T05:41:18;101728.25;;;3.64;100.00
64844;BME280;51310;52.198;5.422;2023-04-26T05:43:45;101734.66;;;3.86;100.00
64844;BME280;51310;52.198;5.422;2023-04-26T05:46:11;101735.09;;;3.89;100.00
64844;BME280;51310;52.198;5.422;2023-04-26T05:48:37;101731.28;;;3.80;100.00
64844;BME280;51310;52.198;5.422;2023-04-26T05:51:03;101740.59;;;3.92;100.00
64844;BME280;51310;52.198;5.422;2023-04-26T05:53:29;101736.06;;;3.84;100.00
64844;BME280;51310;52.198;5.422;2023-04-26T05:55:55;101730.13;;;3.96;100.00
64844;BME280;51310;52.198;5.422;2023-04-26T05:58:21;101728.88;;;4.18;100.00
64844;BME280;51310;52.198;5.422;2023-04-26T06:00:46;101728.09;;;4.38;100.00
64844;BME280;51310;52.198;5.422;2023-04-26T06:03:12;101728.03;;;4.43;100.00
64844;BME280;51310;52.198;5.422;2023-04-26T06:05:38;101728.47;;;4.72;100.00
64844;BME280;51310;52.198;5.422;2023-04-26T06:08:04;101733.66;;;4.92;100.00
64844;BME280;51310;52.198;5.422;2023-04-26T06:10:30;101736.19;;;5.18;100.00
64844;BME280;51310;52.198;5.422;2023-04-26T06:12:56;101747.44;;;5.25;100.00
64844;BME280;51310;52.198;5.422;2023-04-26T06:15:21;101730.69;;;5.27;100.00
64844;BME280;51310;52.198;5.422;2023-04-26T06:17:47;101732.19;;;5.32;100.00
64844;BME280;51310;52.198;5.422;2023-04-26T06:20:13;101729.97;;;5.28;100.00
64844;BME280;51310;52.198;5.422;2023-04-26T06:22:38;101733.25;;;5.14;100.00
64844;BME280;51310;52.198;5.422;2023-04-26T06:25:05;101738.16;;;5.00;100.00
64844;BME280;51310;52.198;5.422;2023-04-26T06:27:31;101733.34;;;4.96;100.00
64844;BME280;51310;52.198;5.422;2023-04-26T06:29:57;101735.81;;;4.76;100.00
64844;BME280;51310;52.198;5.422;2023-04-26T06:32:22;101748.56;;;4.76;100.00
64844;BME280;51310;52.198;5.422;2023-04-26T06:34:48;101735.72;;;4.82;100.00
64844;BME280;51310;52.198;5.422;2023-04-26T06:37:14;101743.69;;;4.90;100.00
64844;BME280;51310;52.198;5.422;2023-04-26T06:39:40;101740.69;;;5.00;100.00
64844;BME280;51310;52.198;5.422;2023-04-26T06:42:06;101743.47;;;5.14;100.00
64844;BME280;51310;52.198;5.422;2023-04-26T06:44:32;101753.44;;;5.26;100.00
64844;BME280;51310;52.198;5.422;2023-04-26T06:46:58;101751.56;;;5.38;100.00
64844;BME280;51310;52.198;5.422;2023-04-26T06:49:24;101754.59;;;5.61;100.00
64844;BME280;51310;52.198;5.422;2023-04-26T06:51:51;101752.25;;;5.62;100.00
64844;BME280;51310;52.198;5.422;2023-04-26T06:54:18;101753.50;;;5.79;100.00
64844;BME280;51310;52.198;5.422;2023-04-26T06:56:44;101762.19;;;5.86;100.00
64844;BME280;51310;52.198;5.422;2023-04-26T06:59:09;101759.63;;;5.86;100.00
64844;BME280;51310;52.198;5.422;2023-04-26T07:01:35;101757.06;;;5.99;100.00
64844;BME280;51310;52.198;5.422;2023-04-26T07:04:05;101761.81;;;6.16;100.00
64844;BME280;51310;52.198;5.422;2023-04-26T07:06:37;101752.22;;;6.28;100.00
64844;BME280;51310;52.198;5.422;2023-04-26T07:09:06;101760.22;;;6.04;100.00
64844;BME280;51310;52.198;5.422;2023-04-26T07:11:32;101758.31;;;5.95;100.00
64844;BME280;51310;52.198;5.422;2023-04-26T07:13:58;101760.28;;;6.11;100.00
64844;BME280;51310;52.198;5.422;2023-04-26T07:16:23;101748.38;;;6.24;100.00
64844;BME280;51310;52.198;5.422;2023-04-26T07:18:49;101752.59;;;6.51;100.00
64844;BME280;51310;52.198;5.422;2023-04-26T07:21:16;101749.38;;;6.39;100.00
64844;BME280;51310;52.198;5.422;2023-04-26T07:23:41;101748.19;;;6.50;100.00
64844;BME280;51310;52.198;5.422;2023-04-26T07:26:10;101748.59;;;6.53;100.00
64844;BME280;51310;52.198;5.422;2023-04-26T07:28:36;101745.84;;;6.51;100.00
64844;BME280;51310;52.198;5.422;2023-04-26T07:31:01;101756.31;;;6.60;100.00
64844;BME280;51310;52.198;5.422;2023-04-26T07:33:27;101746.50;;;6.43;100.00
64844;BME280;51310;52.198;5.422;2023-04-26T07:35:55;101748.38;;;6.71;100.00
64844;BME280;51310;52.198;5.422;2023-04-26T07:38:21;101744.66;;;6.89;100.00
64844;BME280;51310;52.198;5.422;2023-04-26T07:40:48;101744.59;;;7.09;100.00
64844;BME280;51310;52.198;5.422;2023-04-26T07:43:14;101749.13;;;7.05;100.00
64844;BME280;51310;52.198;5.422;2023-04-26T07:45:40;101750.72;;;6.97;100.00
64844;BME280;51310;52.198;5.422;2023-04-26T07:48:06;101755.16;;;7.05;100.00
64844;BME280;51310;52.198;5.422;2023-04-26T07:50:32;101759.81;;;7.15;100.00
64844;BME280;51310;52.198;5.422;2023-04-26T07:52:58;101746.72;;;7.33;100.00
64844;BME280;51310;52.198;5.422;2023-04-26T07:55:24;101758.50;;;7.11;100.00
64844;BME280;51310;52.198;5.422;2023-04-26T07:57:50;101758.81;;;7.00;100.00
64844;BME280;51310;52.198;5.422;2023-04-26T08:00:17;101755.97;;;7.18;100.00
64844;BME280;51310;52.198;5.422;2023-04-26T08:02:44;101758.34;;;7.58;100.00
64844;BME280;51310;52.198;5.422;2023-04-26T08:05:14;101759.41;;;7.53;100.00
64844;BME280;51310;52.198;5.422;2023-04-26T08:07:40;101765.88;;;7.23;100.00
64844;BME280;51310;52.198;5.422;2023-04-26T08:10:07;101771.44;;;7.40;100.00
64844;BME280;51310;52.198;5.422;2023-04-26T08:12:33;101766.34;;;7.47;100.00
64844;BME280;51310;52.198;5.422;2023-04-26T08:15:00;101767.06;;;7.39;100.00
64844;BME280;51310;52.198;5.422;2023-04-26T08:17:26;101763.56;;;7.38;100.00
64844;BME280;51310;52.198;5.422;2023-04-26T08:19:52;101768.31;;;7.35;100.00
64844;BME280;51310;52.198;5.422;2023-04-26T08:22:18;101765.19;;;7.31;100.00
64844;BME280;51310;52.198;5.422;2023-04-26T08:24:51;101767.81;;;7.45;100.00
64844;BME280;51310;52.198;5.422;2023-04-26T08:27:17;101777.06;;;7.30;100.00
64844;BME280;51310;52.198;5.422;2023-04-26T08:29:44;101770.97;;;6.88;100.00
64844;BME280;51310;52.198;5.422;2023-04-26T08:32:10;101774.97;;;6.59;100.00
64844;BME280;51310;52.198;5.422;2023-04-26T08:34:36;101772.91;;;6.56;100.00
64844;BME280;51310;52.198;5.422;2023-04-26T08:37:01;101767.63;;;6.55;100.00
64844;BME280;51310;52.198;5.422;2023-04-26T08:39:27;101767.09;;;6.57;100.00
64844;BME280;51310;52.198;5.422;2023-04-26T08:41:54;101775.81;;;6.52;100.00
64844;BME280;51310;52.198;5.422;2023-04-26T08:44:23;101762.84;;;6.31;100.00
64844;BME280;51310;52.198;5.422;2023-04-26T08:47:17;101775.03;;;6.26;100.00
64844;BME280;51310;52.198;5.422;2023-04-26T08:49:45;101773.13;;;6.38;100.00
64844;BME280;51310;52.198;5.422;2023-04-26T08:52:14;101770.06;;;6.41;100.00
64844;BME280;51310;52.198;5.422;2023-04-26T08:54:42;101776.22;;;6.35;100.00
64844;BME280;51310;52.198;5.422;2023-04-26T08:57:08;101773.25;;;6.32;100.00
64844;BME280;51310;52.198;5.422;2023-04-26T08:59:38;101773.19;;;6.45;100.00
64844;BME280;51310;52.198;5.422;2023-04-26T09:02:06;101769.25;;;6.34;100.00
64844;BME280;51310;52.198;5.422;2023-04-26T09:04:32;101774.97;;;6.39;100.00
64844;BME280;51310;52.198;5.422;2023-04-26T09:07:03;101761.94;;;6.50;100.00
64844;BME280;51310;52.198;5.422;2023-04-26T09:09:40;101767.88;;;6.64;100.00
64844;BME280;51310;52.198;5.422;2023-04-26T09:12:07;101763.72;;;6.71;100.00
64844;BME280;51310;52.198;5.422;2023-04-26T09:14:33;101769.78;;;6.72;100.00
64844;BME280;51310;52.198;5.422;2023-04-26T09:16:59;101761.63;;;6.89;100.00
64844;BME280;51310;52.198;5.422;2023-04-26T09:19:39;101761.09;;;7.18;100.00
64844;BME280;51310;52.198;5.422;2023-04-26T09:22:07;101762.94;;;7.61;100.00
64844;BME280;51310;52.198;5.422;2023-04-26T09:24:52;101762.44;;;7.85;100.00
64844;BME280;51310;52.198;5.422;2023-04-26T09:27:18;101764.31;;;7.93;100.00
64844;BME280;51310;52.198;5.422;2023-04-26T09:30:02;101766.91;;;8.22;100.00
64844;BME280;51310;52.198;5.422;2023-04-26T09:35:39;101768.44;;;8.41;98.71
64844;BME280;51310;52.198;5.422;2023-04-26T09:38:15;101766.78;;;8.42;97.51
64844;BME280;51310;52.198;5.422;2023-04-26T09:40:46;101769.16;;;8.69;97.29
64844;BME280;51310;52.198;5.422;2023-04-26T09:43:18;101765.13;;;8.50;91.69
64844;BME280;51310;52.198;5.422;2023-04-26T09:45:51;101769.91;;;8.54;85.89
64844;BME280;51310;52.198;5.422;2023-04-26T09:48:26;101775.06;;;8.47;83.98
64844;BME280;51310;52.198;5.422;2023-04-26T09:53:45;101771.56;;;8.53;92.28
64844;BME280;51310;52.198;5.422;2023-04-26T09:56:13;101763.66;;;8.88;87.12
64844;BME280;51310;52.198;5.422;2023-04-26T09:58:59;101768.38;;;8.92;84.68
64844;BME280;51310;52.198;5.422;2023-04-26T10:01:30;101766.41;;;8.60;84.50
64844;BME280;51310;52.198;5.422;2023-04-26T10:04:00;101777.53;;;8.04;80.32
64844;BME280;51310;52.198;5.422;2023-04-26T10:06:27;101769.44;;;7.86;83.14
64844;BME280;51310;52.198;5.422;2023-04-26T10:08:53;101761.81;;;7.59;87.16
64844;BME280;51310;52.198;5.422;2023-04-26T10:11:20;101770.34;;;7.87;91.94
64844;BME280;51310;52.198;5.422;2023-04-26T10:13:49;101766.47;;;7.90;82.29
64844;BME280;51310;52.198;5.422;2023-04-26T10:16:15;101758.63;;;7.96;83.12
64844;BME280;51310;52.198;5.422;2023-04-26T10:18:41;101757.94;;;8.11;82.24
64844;BME280;51310;52.198;5.422;2023-04-26T10:21:30;101767.03;;;7.88;78.78
64844;BME280;51310;52.198;5.422;2023-04-26T10:24:00;101773.41;;;7.77;76.81
64844;BME280;51310;52.198;5.422;2023-04-26T10:26:49;101770.75;;;8.04;78.56
64844;BME280;51310;52.198;5.422;2023-04-26T10:29:20;101765.47;;;8.24;77.40
64844;BME280;51310;52.198;5.422;2023-04-26T10:34:31;101771.28;;;8.09;76.11
64844;BME280;51310;52.198;5.422;2023-04-26T10:37:11;101763.09;;;8.26;77.70
64844;BME280;51310;52.198;5.422;2023-04-26T10:39:39;101760.72;;;8.49;75.17
64844;BME280;51310;52.198;5.422;2023-04-26T10:42:25;101766.56;;;8.19;74.74
64844;BME280;51310;52.198;5.422;2023-04-26T10:44:54;101765.09;;;8.28;75.53
64844;BME280;51310;52.198;5.422;2023-04-26T10:50:15;101760.50;;;8.18;71.13
64844;BME280;51310;52.198;5.422;2023-04-26T10:55:54;101766.31;;;7.89;73.06
64844;BME280;51310;52.198;5.422;2023-04-26T10:58:34;101767.78;;;8.01;74.36
64844;BME280;51310;52.198;5.422;2023-04-26T11:01:17;101761.56;;;7.92;72.77
64844;BME280;51310;52.198;5.422;2023-04-26T11:04:05;101758.84;;;8.12;74.47
64844;BME280;51310;52.198;5.422;2023-04-26T11:07:01;101761.56;;;7.92;75.40
64844;BME280;51310;52.198;5.422;2023-04-26T11:09:39;101767.38;;;7.69;78.17
64844;BME280;51310;52.198;5.422;2023-04-26T11:12:13;101764.38;;;7.59;82.02
64844;BME280;51310;52.198;5.422;2023-04-26T11:14:45;101757.06;;;7.55;81.46
64844;BME280;51310;52.198;5.422;2023-04-26T11:17:11;101752.34;;;7.72;82.37
64844;BME280;51310;52.198;5.422;2023-04-26T11:19:39;101753.53;;;8.10;80.93
64844;BME280;51310;52.198;5.422;2023-04-26T11:22:06;101749.50;;;8.05;81.77
64844;BME280;51310;52.198;5.422;2023-04-26T11:24:34;101740.34;;;8.07;82.91
64844;BME280;51310;52.198;5.422;2023-04-26T11:27:09;101744.41;;;8.12;82.31
64844;BME280;51310;52.198;5.422;2023-04-26T11:29:36;101739.25;;;8.12;84.89
64844;BME280;51310;52.198;5.422;2023-04-26T11:32:03;101740.00;;;8.26;81.96
64844;BME280;51310;52.198;5.422;2023-04-26T11:34:33;101747.53;;;8.38;77.72
64844;BME280;51310;52.198;5.422;2023-04-26T11:37:04;101741.28;;;8.15;77.23
64844;BME280;51310;52.198;5.422;2023-04-26T11:39:34;101736.53;;;8.75;75.70
64844;BME280;51310;52.198;5.422;2023-04-26T11:42:10;101744.56;;;8.93;71.81
64844;BME280;51310;52.198;5.422;2023-04-26T11:44:37;101735.78;;;8.76;63.87
64844;BME280;51310;52.198;5.422;2023-04-26T11:47:07;101744.56;;;8.93;64.91
64844;BME280;51310;52.198;5.422;2023-04-26T11:49:35;101739.72;;;9.24;63.90
64844;BME280;51310;52.198;5.422;2023-04-26T11:52:03;101746.94;;;9.50;61.59
64844;BME280;51310;52.198;5.422;2023-04-26T11:54:32;101748.47;;;9.71;61.04
64844;BME280;51310;52.198;5.422;2023-04-26T11:56:59;101751.53;;;9.01;60.42
64844;BME280;51310;52.198;5.422;2023-04-26T11:59:26;101741.78;;;9.06;60.68
64844;BME280;51310;52.198;5.422;2023-04-26T12:01:56;101744.06;;;9.33;61.46
64844;BME280;51310;52.198;5.422;2023-04-26T12:04:29;101740.06;;;9.28;61.75
64844;BME280;51310;52.198;5.422;2023-04-26T12:06:56;101745.75;;;9.25;62.54
64844;BME280;51310;52.198;5.422;2023-04-26T12:09:26;101739.75;;;9.10;61.59
64844;BME280;51310;52.198;5.422;2023-04-26T12:11:59;101744.97;;;8.67;60.93
64844;BME280;51310;52.198;5.422;2023-04-26T12:14:46;101740.00;;;8.61;62.80
64844;BME280;51310;52.198;5.422;2023-04-26T12:17:14;101736.31;;;8.88;63.89
64844;BME280;51310;52.198;5.422;2023-04-26T12:19:40;101736.81;;;9.14;63.22
64844;BME280;51310;52.198;5.422;2023-04-26T12:22:07;101735.50;;;9.25;63.58
64844;BME280;51310;52.198;5.422;2023-04-26T12:24:33;101743.09;;;8.80;63.08
64844;BME280;51310;52.198;5.422;2023-04-26T12:27:05;101742.22;;;8.58;64.83
64844;BME280;51310;52.198;5.422;2023-04-26T12:29:32;101740.75;;;8.60;63.96
64844;BME280;51310;52.198;5.422;2023-04-26T12:31:59;101740.75;;;8.68;65.22
64844;BME280;51310;52.198;5.422;2023-04-26T12:34:24;101745.34;;;8.77;66.22
64844;BME280;51310;52.198;5.422;2023-04-26T12:36:50;101749.25;;;9.26;67.40
64844;BME280;51310;52.198;5.422;2023-04-26T12:39:16;101751.16;;;9.57;66.30
64844;BME280;51310;52.198;5.422;2023-04-26T12:41:43;101752.44;;;9.53;64.67
64844;BME280;51310;52.198;5.422;2023-04-26T12:44:10;101751.34;;;9.51;63.89
64844;BME280;51310;52.198;5.422;2023-04-26T12:46:36;101745.94;;;9.19;65.42
64844;BME280;51310;52.198;5.422;2023-04-26T12:49:02;101749.13;;;9.10;66.42
64844;BME280;51310;52.198;5.422;2023-04-26T12:51:29;101753.34;;;9.02;65.45
64844;BME280;51310;52.198;5.422;2023-04-26T12:53:56;101741.28;;;8.72;65.67
64844;BME280;51310;52.198;5.422;2023-04-26T12:56:23;101747.53;;;8.46;68.19
64844;BME280;51310;52.198;5.422;2023-04-26T12:58:49;101748.66;;;8.40;71.37
64844;BME280;51310;52.198;5.422;2023-04-26T13:01:15;101750.63;;;8.21;75.57
64844;BME280;51310;52.198;5.422;2023-04-26T13:03:41;101747.47;;;8.10;77.33
64844;BME280;51310;52.198;5.422;2023-04-26T13:06:08;101755.88;;;7.87;80.05
64844;BME280;51310;52.198;5.422;2023-04-26T13:08:33;101750.00;;;7.88;80.18
64844;BME280;51310;52.198;5.422;2023-04-26T13:10:59;101755.53;;;7.91;81.10